sensor_id;sensor_type;location;lat;lon;timestamp;P1;durP1;ratioP1;P2;durP2;ratioP2
28547;SDS011;68292;49.600;8.746;2023-07-20T00:02:38;6.82;;;2.08;;
28547;SDS011;68292;49.600;8.746;2023-07-20T00:05:07;2.30;;;2.10;;
28547;SDS011;68292;49.600;8.746;2023-07-20T00:07:36;1.98;;;1.77;;
28547;SDS011;68292;49.600;8.746;2023-07-20T00:10:04;2.30;;;2.08;;
28547;SDS011;68292;49.600;8.746;2023-07-20T00:12:33;2.53;;;2.33;;
28547;SDS011;68292;49.600;8.746;2023-07-20T00:15:02;1.98;;;1.88;;
28547;SDS011;68292;49.600;8.746;2023-07-20T00:17:31;3.47;;;1.95;;
28547;SDS011;68292;49.600;8.746;2023-07-20T00:19:59;2.17;;;1.98;;
28547;SDS011;68292;49.600;8.746;2023-07-20T00:22:27;3.00;;;2.00;;
28547;SDS011;68292;49.600;8.746;2023-07-20T00:24:57;2.33;;;1.90;;
28547;SDS011;68292;49.600;8.746;2023-07-20T00:27:25;3.15;;;2.08;;
28547;SDS011;68292;49.600;8.746;2023-07-20T00:29:53;3.05;;;2.33;;
28547;SDS011;68292;49.600;8.746;2023-07-20T00:32:21;2.22;;;2.03;;
28547;SDS011;68292;49.600;8.746;2023-07-20T00:34:49;2.92;;;2.13;;
28547;SDS011;68292;49.600;8.746;2023-07-20T00:37:17;3.08;;;2.10;;
28547;SDS011;68292;49.600;8.746;2023-07-20T00:39:45;4.15;;;2.53;;
28547;SDS011;68292;49.600;8.746;2023-07-20T00:42:14;3.58;;;2.10;;
28547;SDS011;68292;49.600;8.746;2023-07-20T00:44:44;2.53;;;2.30;;
28547;SDS011;68292;49.600;8.746;2023-07-20T00:47:12;2.53;;;2.33;;
28547;SDS011;68292;49.600;8.746;2023-07-20T00:49:40;3.10;;;2.25;;
28547;SDS011;68292;49.600;8.746;2023-07-20T00:52:08;4.35;;;2.30;;
28547;SDS011;68292;49.600;8.746;2023-07-20T00:54:41;2.55;;;2.35;;
28547;SDS011;68292;49.600;8.746;2023-07-20T00:57:11;4.05;;;2.17;;
28547;SDS011;68292;49.600;8.746;2023-07-20T00:59:43;2.90;;;2.50;;
28547;SDS011;68292;49.600;8.746;2023-07-20T01:02:11;3.22;;;2.47;;
28547;SDS011;68292;49.600;8.746;2023-07-20T01:04:39;3.63;;;2.47;;
28547;SDS011;68292;49.600;8.746;2023-07-20T01:07:09;2.50;;;2.22;;
28547;SDS011;68292;49.600;8.746;2023-07-20T01:09:44;4.32;;;2.58;;
28547;SDS011;68292;49.600;8.746;2023-07-20T01:12:20;3.47;;;2.15;;
28547;SDS011;68292;49.600;8.746;2023-07-20T01:14:54;4.72;;;2.40;;
28547;SDS011;68292;49.600;8.746;2023-07-20T01:17:22;3.33;;;2.42;;
28547;SDS011;68292;49.600;8.746;2023-07-20T01:19:51;3.08;;;2.10;;
28547;SDS011;68292;49.600;8.746;2023-07-20T01:22:21;2.67;;;2.38;;
28547;SDS011;68292;49.600;8.746;2023-07-20T01:25:18;3.25;;;2.40;;
28547;SDS011;68292;49.600;8.746;2023-07-20T01:28:12;4.03;;;2.22;;
28547;SDS011;68292;49.600;8.746;2023-07-20T01:31:14;2.92;;;2.22;;
28547;SDS011;68292;49.600;8.746;2023-07-20T01:33:47;2.50;;;2.30;;
28547;SDS011;68292;49.600;8.746;2023-07-20T01:36:18;4.00;;;2.65;;
28547;SDS011;68292;49.600;8.746;2023-07-20T01:38:47;2.88;;;2.50;;
28547;SDS011;68292;49.600;8.746;2023-07-20T01:41:16;2.45;;;2.10;;
28547;SDS011;68292;49.600;8.746;2023-07-20T01:43:45;3.13;;;2.10;;
28547;SDS011;68292;49.600;8.746;2023-07-20T01:46:16;2.85;;;2.55;;
28547;SDS011;68292;49.600;8.746;2023-07-20T01:48:44;3.78;;;2.35;;
28547;SDS011;68292;49.600;8.746;2023-07-20T01:51:13;2.88;;;2.28;;
28547;SDS011;68292;49.600;8.746;2023-07-20T01:53:41;2.63;;;2.35;;
28547;SDS011;68292;49.600;8.746;2023-07-20T01:56:09;2.90;;;2.42;;
28547;SDS011;68292;49.600;8.746;2023-07-20T01:58:38;3.65;;;2.22;;
28547;SDS011;68292;49.600;8.746;2023-07-20T02:01:06;2.75;;;2.13;;
28547;SDS011;68292;49.600;8.746;2023-07-20T02:03:36;2.35;;;2.15;;
28547;SDS011;68292;49.600;8.746;2023-07-20T02:06:04;2.33;;;2.10;;
28547;SDS011;68292;49.600;8.746;2023-07-20T02:08:32;2.97;;;2.30;;
28547;SDS011;68292;49.600;8.746;2023-07-20T02:11:00;3.03;;;2.40;;
28547;SDS011;68292;49.600;8.746;2023-07-20T02:13:29;3.88;;;2.50;;
28547;SDS011;68292;49.600;8.746;2023-07-20T02:15:58;4.50;;;2.50;;
28547;SDS011;68292;49.600;8.746;2023-07-20T02:18:26;2.63;;;2.42;;
28547;SDS011;68292;49.600;8.746;2023-07-20T02:20:55;2.80;;;2.38;;
28547;SDS011;68292;49.600;8.746;2023-07-20T02:23:23;5.50;;;2.55;;
28547;SDS011;68292;49.600;8.746;2023-07-20T02:25:52;3.35;;;2.42;;
28547;SDS011;68292;49.600;8.746;2023-07-20T02:28:20;4.22;;;2.35;;
28547;SDS011;68292;49.600;8.746;2023-07-20T02:30:48;2.40;;;2.15;;
28547;SDS011;68292;49.600;8.746;2023-07-20T02:33:16;2.30;;;2.10;;
28547;SDS011;68292;49.600;8.746;2023-07-20T02:35:44;2.97;;;2.67;;
28547;SDS011;68292;49.600;8.746;2023-07-20T02:38:14;2.63;;;2.42;;
28547;SDS011;68292;49.600;8.746;2023-07-20T02:40:42;3.83;;;2.38;;
28547;SDS011;68292;49.600;8.746;2023-07-20T02:43:10;5.15;;;2.17;;
28547;SDS011;68292;49.600;8.746;2023-07-20T02:45:40;3.80;;;2.60;;
28547;SDS011;68292;49.600;8.746;2023-07-20T02:48:09;3.53;;;2.58;;
28547;SDS011;68292;49.600;8.746;2023-07-20T02:50:37;2.80;;;2.45;;
28547;SDS011;68292;49.600;8.746;2023-07-20T02:53:05;3.25;;;2.72;;
28547;SDS011;68292;49.600;8.746;2023-07-20T02:55:35;3.08;;;2.28;;
28547;SDS011;68292;49.600;8.746;2023-07-20T02:58:03;3.30;;;2.53;;
28547;SDS011;68292;49.600;8.746;2023-07-20T03:00:31;3.60;;;2.22;;
28547;SDS011;68292;49.600;8.746;2023-07-20T03:03:00;3.85;;;2.33;;
28547;SDS011;68292;49.600;8.746;2023-07-20T03:05:28;2.67;;;2.42;;
28547;SDS011;68292;49.600;8.746;2023-07-20T03:07:56;3.20;;;2.60;;
28547;SDS011;68292;49.600;8.746;2023-07-20T03:10:25;3.25;;;2.38;;
28547;SDS011;68292;49.600;8.746;2023-07-20T03:12:56;4.80;;;2.30;;
28547;SDS011;68292;49.600;8.746;2023-07-20T03:15:25;4.03;;;2.17;;
28547;SDS011;68292;49.600;8.746;2023-07-20T03:17:54;2.65;;;2.38;;
28547;SDS011;68292;49.600;8.746;2023-07-20T03:20:22;2.50;;;2.30;;
28547;SDS011;68292;49.600;8.746;2023-07-20T03:22:51;2.70;;;2.50;;
28547;SDS011;68292;49.600;8.746;2023-07-20T03:25:19;4.22;;;2.65;;
28547;SDS011;68292;49.600;8.746;2023-07-20T03:27:47;3.17;;;2.60;;
28547;SDS011;68292;49.600;8.746;2023-07-20T03:30:17;2.92;;;2.38;;
28547;SDS011;68292;49.600;8.746;2023-07-20T03:32:45;2.50;;;2.20;;
28547;SDS011;68292;49.600;8.746;2023-07-20T03:35:14;3.20;;;2.90;;
28547;SDS011;68292;49.600;8.746;2023-07-20T03:37:42;3.10;;;2.63;;
28547;SDS011;68292;49.600;8.746;2023-07-20T03:40:11;3.20;;;2.40;;
28547;SDS011;68292;49.600;8.746;2023-07-20T03:42:39;2.78;;;2.42;;
28547;SDS011;68292;49.600;8.746;2023-07-20T03:45:08;3.10;;;2.80;;
28547;SDS011;68292;49.600;8.746;2023-07-20T03:47:38;3.20;;;2.20;;
28547;SDS011;68292;49.600;8.746;2023-07-20T03:50:06;2.90;;;2.70;;
28547;SDS011;68292;49.600;8.746;2023-07-20T03:52:36;3.35;;;2.40;;
28547;SDS011;68292;49.600;8.746;2023-07-20T03:55:05;3.95;;;2.72;;
28547;SDS011;68292;49.600;8.746;2023-07-20T03:57:34;3.03;;;2.30;;
28547;SDS011;68292;49.600;8.746;2023-07-20T04:00:03;2.60;;;2.33;;
28547;SDS011;68292;49.600;8.746;2023-07-20T04:02:39;4.28;;;2.30;;
28547;SDS011;68292;49.600;8.746;2023-07-20T04:05:08;2.95;;;2.28;;
28547;SDS011;68292;49.600;8.746;2023-07-20T04:07:36;3.17;;;2.50;;
28547;SDS011;68292;49.600;8.746;2023-07-20T04:10:04;4.22;;;2.60;;
28547;SDS011;68292;49.600;8.746;2023-07-20T04:12:34;2.70;;;2.50;;
28547;SDS011;68292;49.600;8.746;2023-07-20T04:15:03;2.60;;;2.28;;
28547;SDS011;68292;49.600;8.746;2023-07-20T04:17:32;3.75;;;2.20;;
28547;SDS011;68292;49.600;8.746;2023-07-20T04:20:02;4.03;;;2.70;;
28547;SDS011;68292;49.600;8.746;2023-07-20T04:22:32;3.75;;;2.60;;
28547;SDS011;68292;49.600;8.746;2023-07-20T04:25:00;5.03;;;2.67;;
28547;SDS011;68292;49.600;8.746;2023-07-20T04:27:29;5.45;;;2.50;;
28547;SDS011;68292;49.600;8.746;2023-07-20T04:29:58;3.03;;;2.72;;
28547;SDS011;68292;49.600;8.746;2023-07-20T04:32:26;3.63;;;2.78;;
28547;SDS011;68292;49.600;8.746;2023-07-20T04:34:55;2.88;;;2.63;;
28547;SDS011;68292;49.600;8.746;2023-07-20T04:37:25;2.65;;;2.40;;
28547;SDS011;68292;49.600;8.746;2023-07-20T04:39:53;2.40;;;2.20;;
28547;SDS011;68292;49.600;8.746;2023-07-20T04:42:21;3.30;;;3.00;;
28547;SDS011;68292;49.600;8.746;2023-07-20T04:44:49;3.25;;;2.50;;
28547;SDS011;68292;49.600;8.746;2023-07-20T04:47:18;2.80;;;2.60;;
28547;SDS011;68292;49.600;8.746;2023-07-20T04:49:48;3.47;;;2.35;;
28547;SDS011;68292;49.600;8.746;2023-07-20T04:52:16;4.00;;;2.88;;
28547;SDS011;68292;49.600;8.746;2023-07-20T04:54:48;6.57;;;2.60;;
28547;SDS011;68292;49.600;8.746;2023-07-20T04:57:16;3.50;;;2.45;;
28547;SDS011;68292;49.600;8.746;2023-07-20T04:59:47;3.35;;;3.05;;
28547;SDS011;68292;49.600;8.746;2023-07-20T05:02:15;3.72;;;2.42;;
28547;SDS011;68292;49.600;8.746;2023-07-20T05:04:43;2.97;;;2.40;;
28547;SDS011;68292;49.600;8.746;2023-07-20T05:07:11;3.13;;;2.40;;
28547;SDS011;68292;49.600;8.746;2023-07-20T05:09:40;4.85;;;2.60;;
28547;SDS011;68292;49.600;8.746;2023-07-20T05:12:09;2.50;;;2.30;;
28547;SDS011;68292;49.600;8.746;2023-07-20T05:14:38;3.22;;;2.88;;
28547;SDS011;68292;49.600;8.746;2023-07-20T05:17:08;3.78;;;2.42;;
28547;SDS011;68292;49.600;8.746;2023-07-20T05:19:36;11.13;;;2.60;;
28547;SDS011;68292;49.600;8.746;2023-07-20T05:22:04;3.03;;;2.50;;
28547;SDS011;68292;49.600;8.746;2023-07-20T05:24:32;4.03;;;2.35;;
28547;SDS011;68292;49.600;8.746;2023-07-20T05:27:00;3.47;;;2.42;;
28547;SDS011;68292;49.600;8.746;2023-07-20T05:29:29;3.20;;;2.47;;
28547;SDS011;68292;49.600;8.746;2023-07-20T05:31:58;2.53;;;2.33;;
28547;SDS011;68292;49.600;8.746;2023-07-20T05:34:26;2.35;;;2.15;;
28547;SDS011;68292;49.600;8.746;2023-07-20T05:36:54;4.05;;;2.88;;
28547;SDS011;68292;49.600;8.746;2023-07-20T05:39:22;4.03;;;2.78;;
28547;SDS011;68292;49.600;8.746;2023-07-20T05:41:50;3.40;;;2.47;;
28547;SDS011;68292;49.600;8.746;2023-07-20T05:44:18;3.22;;;2.38;;
28547;SDS011;68292;49.600;8.746;2023-07-20T05:46:48;3.42;;;2.95;;
28547;SDS011;68292;49.600;8.746;2023-07-20T05:49:23;2.80;;;2.33;;
28547;SDS011;68292;49.600;8.746;2023-07-20T05:51:51;3.33;;;2.05;;
28547;SDS011;68292;49.600;8.746;2023-07-20T05:54:19;5.00;;;2.70;;
28547;SDS011;68292;49.600;8.746;2023-07-20T05:56:47;4.43;;;3.00;;
28547;SDS011;68292;49.600;8.746;2023-07-20T05:59:15;7.20;;;2.47;;
28547;SDS011;68292;49.600;8.746;2023-07-20T06:01:44;3.13;;;2.83;;
28547;SDS011;68292;49.600;8.746;2023-07-20T06:04:14;3.15;;;2.45;;
28547;SDS011;68292;49.600;8.746;2023-07-20T06:06:43;3.17;;;2.55;;
28547;SDS011;68292;49.600;8.746;2023-07-20T06:09:12;5.03;;;2.63;;
28547;SDS011;68292;49.600;8.746;2023-07-20T06:11:40;4.43;;;2.95;;
28547;SDS011;68292;49.600;8.746;2023-07-20T06:14:08;5.70;;;3.08;;
28547;SDS011;68292;49.600;8.746;2023-07-20T06:16:37;3.50;;;2.40;;
28547;SDS011;68292;49.600;8.746;2023-07-20T06:19:05;4.50;;;2.83;;
28547;SDS011;68292;49.600;8.746;2023-07-20T06:21:34;3.25;;;2.63;;
28547;SDS011;68292;49.600;8.746;2023-07-20T06:24:03;2.90;;;2.30;;
28547;SDS011;68292;49.600;8.746;2023-07-20T06:26:31;6.88;;;2.55;;
28547;SDS011;68292;49.600;8.746;2023-07-20T06:29:05;3.75;;;2.55;;
28547;SDS011;68292;49.600;8.746;2023-07-20T06:31:33;6.45;;;2.75;;
28547;SDS011;68292;49.600;8.746;2023-07-20T06:34:02;3.03;;;2.53;;
28547;SDS011;68292;49.600;8.746;2023-07-20T06:36:30;5.15;;;2.55;;
28547;SDS011;68292;49.600;8.746;2023-07-20T06:39:00;3.75;;;2.55;;
28547;SDS011;68292;49.600;8.746;2023-07-20T06:41:32;3.67;;;2.58;;
28547;SDS011;68292;49.600;8.746;2023-07-20T06:44:03;2.60;;;2.30;;
28547;SDS011;68292;49.600;8.746;2023-07-20T06:46:31;2.58;;;2.38;;
28547;SDS011;68292;49.600;8.746;2023-07-20T06:48:59;3.63;;;2.70;;
28547;SDS011;68292;49.600;8.746;2023-07-20T06:51:30;5.13;;;2.80;;
28547;SDS011;68292;49.600;8.746;2023-07-20T06:54:01;4.38;;;2.70;;
28547;SDS011;68292;49.600;8.746;2023-07-20T06:56:30;4.13;;;2.78;;
28547;SDS011;68292;49.600;8.746;2023-07-20T06:59:00;3.83;;;3.00;;
28547;SDS011;68292;49.600;8.746;2023-07-20T07:01:29;4.82;;;3.00;;
28547;SDS011;68292;49.600;8.746;2023-07-20T07:03:57;3.42;;;3.03;;
28547;SDS011;68292;49.600;8.746;2023-07-20T07:06:25;3.20;;;2.63;;
28547;SDS011;68292;49.600;8.746;2023-07-20T07:08:54;3.17;;;2.58;;
28547;SDS011;68292;49.600;8.746;2023-07-20T07:11:23;4.55;;;2.65;;
28547;SDS011;68292;49.600;8.746;2023-07-20T07:13:52;5.25;;;2.38;;
28547;SDS011;68292;49.600;8.746;2023-07-20T07:16:23;3.03;;;2.72;;
28547;SDS011;68292;49.600;8.746;2023-07-20T07:18:51;5.97;;;2.90;;
28547;SDS011;68292;49.600;8.746;2023-07-20T07:21:25;3.25;;;2.95;;
28547;SDS011;68292;49.600;8.746;2023-07-20T07:23:53;5.45;;;2.90;;
28547;SDS011;68292;49.600;8.746;2023-07-20T07:26:25;2.50;;;2.28;;
28547;SDS011;68292;49.600;8.746;2023-07-20T07:28:53;3.65;;;2.58;;
28547;SDS011;68292;49.600;8.746;2023-07-20T07:31:21;3.42;;;2.33;;
28547;SDS011;68292;49.600;8.746;2023-07-20T07:33:49;3.40;;;2.63;;
28547;SDS011;68292;49.600;8.746;2023-07-20T07:36:18;2.95;;;2.15;;
28547;SDS011;68292;49.600;8.746;2023-07-20T07:38:46;4.13;;;2.90;;
28547;SDS011;68292;49.600;8.746;2023-07-20T07:41:35;5.43;;;2.33;;
28547;SDS011;68292;49.600;8.746;2023-07-20T07:44:04;3.15;;;2.50;;
28547;SDS011;68292;49.600;8.746;2023-07-20T07:46:32;2.40;;;2.20;;
28547;SDS011;68292;49.600;8.746;2023-07-20T07:49:00;2.13;;;1.95;;
28547;SDS011;68292;49.600;8.746;2023-07-20T07:51:28;4.25;;;2.80;;
28547;SDS011;68292;49.600;8.746;2023-07-20T07:53:57;2.67;;;2.08;;
28547;SDS011;68292;49.600;8.746;2023-07-20T07:56:25;4.18;;;1.95;;
28547;SDS011;68292;49.600;8.746;2023-07-20T07:58:54;2.50;;;2.30;;
28547;SDS011;68292;49.600;8.746;2023-07-20T08:01:22;3.22;;;2.33;;
28547;SDS011;68292;49.600;8.746;2023-07-20T08:03:51;3.45;;;2.20;;
28547;SDS011;68292;49.600;8.746;2023-07-20T08:06:19;2.95;;;2.30;;
28547;SDS011;68292;49.600;8.746;2023-07-20T08:08:48;5.07;;;2.67;;
28547;SDS011;68292;49.600;8.746;2023-07-20T08:11:16;7.28;;;2.88;;
28547;SDS011;68292;49.600;8.746;2023-07-20T08:13:44;3.38;;;2.63;;
28547;SDS011;68292;49.600;8.746;2023-07-20T08:16:13;5.68;;;2.88;;
28547;SDS011;68292;49.600;8.746;2023-07-20T08:18:41;3.78;;;2.50;;
28547;SDS011;68292;49.600;8.746;2023-07-20T08:21:12;2.70;;;2.22;;
28547;SDS011;68292;49.600;8.746;2023-07-20T08:23:40;3.55;;;2.47;;
28547;SDS011;68292;49.600;8.746;2023-07-20T08:26:08;2.70;;;2.47;;
28547;SDS011;68292;49.600;8.746;2023-07-20T08:28:36;3.17;;;2.38;;
28547;SDS011;68292;49.600;8.746;2023-07-20T08:31:05;2.25;;;2.10;;
28547;SDS011;68292;49.600;8.746;2023-07-20T08:33:35;3.63;;;2.38;;
28547;SDS011;68292;49.600;8.746;2023-07-20T08:36:03;4.53;;;2.30;;
28547;SDS011;68292;49.600;8.746;2023-07-20T08:38:32;4.25;;;2.00;;
28547;SDS011;68292;49.600;8.746;2023-07-20T08:41:00;3.05;;;2.35;;
28547;SDS011;68292;49.600;8.746;2023-07-20T08:43:29;2.35;;;2.15;;
28547;SDS011;68292;49.600;8.746;2023-07-20T08:45:58;4.28;;;2.30;;
28547;SDS011;68292;49.600;8.746;2023-07-20T08:48:29;3.38;;;2.00;;
28547;SDS011;68292;49.600;8.746;2023-07-20T08:50:59;2.35;;;2.00;;
28547;SDS011;68292;49.600;8.746;2023-07-20T08:53:29;3.08;;;1.67;;
28547;SDS011;68292;49.600;8.746;2023-07-20T08:56:00;3.85;;;2.10;;
28547;SDS011;68292;49.600;8.746;2023-07-20T08:58:29;3.97;;;2.13;;
28547;SDS011;68292;49.600;8.746;2023-07-20T09:00:58;2.20;;;2.00;;
28547;SDS011;68292;49.600;8.746;2023-07-20T09:03:28;2.72;;;2.38;;
28547;SDS011;68292;49.600;8.746;2023-07-20T09:05:56;2.53;;;2.30;;
28547;SDS011;68292;49.600;8.746;2023-07-20T09:08:26;2.63;;;2.08;;
28547;SDS011;68292;49.600;8.746;2023-07-20T09:10:54;4.28;;;2.35;;
28547;SDS011;68292;49.600;8.746;2023-07-20T09:13:24;3.17;;;2.35;;
28547;SDS011;68292;49.600;8.746;2023-07-20T09:15:54;3.25;;;2.17;;
28547;SDS011;68292;49.600;8.746;2023-07-20T09:18:25;3.38;;;2.20;;
28547;SDS011;68292;49.600;8.746;2023-07-20T09:20:57;2.30;;;2.10;;
28547;SDS011;68292;49.600;8.746;2023-07-20T09:23:32;4.53;;;2.00;;
28547;SDS011;68292;49.600;8.746;2023-07-20T09:26:04;3.60;;;2.10;;
28547;SDS011;68292;49.600;8.746;2023-07-20T09:28:41;2.25;;;2.05;;
28547;SDS011;68292;49.600;8.746;2023-07-20T09:31:16;4.68;;;2.10;;
28547;SDS011;68292;49.600;8.746;2023-07-20T09:33:46;2.90;;;2.05;;
28547;SDS011;68292;49.600;8.746;2023-07-20T09:36:18;1.80;;;1.70;;
28547;SDS011;68292;49.600;8.746;2023-07-20T09:39:07;2.45;;;2.13;;
28547;SDS011;68292;49.600;8.746;2023-07-20T09:41:42;2.70;;;1.77;;
28547;SDS011;68292;49.600;8.746;2023-07-20T09:44:13;2.17;;;1.88;;
28547;SDS011;68292;49.600;8.746;2023-07-20T09:46:45;3.28;;;2.00;;
28547;SDS011;68292;49.600;8.746;2023-07-20T09:49:17;2.97;;;2.00;;
28547;SDS011;68292;49.600;8.746;2023-07-20T09:51:48;2.35;;;2.13;;
28547;SDS011;68292;49.600;8.746;2023-07-20T09:54:18;2.25;;;2.05;;
28547;SDS011;68292;49.600;8.746;2023-07-20T09:56:49;3.38;;;2.03;;
28547;SDS011;68292;49.600;8.746;2023-07-20T09:59:19;2.20;;;2.00;;
28547;SDS011;68292;49.600;8.746;2023-07-20T10:01:47;2.15;;;1.95;;
28547;SDS011;68292;49.600;8.746;2023-07-20T10:04:19;2.08;;;1.77;;
28547;SDS011;68292;49.600;8.746;2023-07-20T10:06:49;2.55;;;2.35;;
28547;SDS011;68292;49.600;8.746;2023-07-20T10:09:21;2.33;;;2.08;;
28547;SDS011;68292;49.600;8.746;2023-07-20T10:11:52;2.55;;;2.17;;
28547;SDS011;68292;49.600;8.746;2023-07-20T10:14:24;2.95;;;1.95;;
28547;SDS011;68292;49.600;8.746;2023-07-20T10:16:57;2.10;;;1.90;;
28547;SDS011;68292;49.600;8.746;2023-07-20T10:19:30;2.35;;;2.13;;
28547;SDS011;68292;49.600;8.746;2023-07-20T10:22:03;2.08;;;1.90;;
28547;SDS011;68292;49.600;8.746;2023-07-20T10:24:40;2.15;;;1.95;;
28547;SDS011;68292;49.600;8.746;2023-07-20T10:27:12;1.90;;;1.80;;
28547;SDS011;68292;49.600;8.746;2023-07-20T10:29:41;2.50;;;1.65;;
28547;SDS011;68292;49.600;8.746;2023-07-20T10:32:13;6.55;;;2.38;;
28547;SDS011;68292;49.600;8.746;2023-07-20T10:34:41;4.57;;;2.10;;
28547;SDS011;68292;49.600;8.746;2023-07-20T10:37:09;3.20;;;2.13;;
28547;SDS011;68292;49.600;8.746;2023-07-20T10:39:37;2.50;;;2.15;;
28547;SDS011;68292;49.600;8.746;2023-07-20T10:42:09;2.40;;;2.20;;
28547;SDS011;68292;49.600;8.746;2023-07-20T10:44:39;2.95;;;2.08;;
28547;SDS011;68292;49.600;8.746;2023-07-20T10:47:08;2.05;;;1.95;;
28547;SDS011;68292;49.600;8.746;2023-07-20T10:52:25;2.20;;;2.00;;
28547;SDS011;68292;49.600;8.746;2023-07-20T10:54:59;2.83;;;2.20;;
28547;SDS011;68292;49.600;8.746;2023-07-20T10:57:39;2.55;;;2.08;;
28547;SDS011;68292;49.600;8.746;2023-07-20T11:00:08;2.85;;;2.20;;
28547;SDS011;68292;49.600;8.746;2023-07-20T11:02:46;3.25;;;2.28;;
28547;SDS011;68292;49.600;8.746;2023-07-20T11:05:36;3.30;;;2.13;;
28547;SDS011;68292;49.600;8.746;2023-07-20T11:08:09;3.67;;;2.00;;
28547;SDS011;68292;49.600;8.746;2023-07-20T11:10:40;2.15;;;1.95;;
28547;SDS011;68292;49.600;8.746;2023-07-20T11:13:21;2.40;;;2.20;;
28547;SDS011;68292;49.600;8.746;2023-07-20T11:16:04;2.58;;;2.10;;
28547;SDS011;68292;49.600;8.746;2023-07-20T11:18:33;2.40;;;2.13;;
28547;SDS011;68292;49.600;8.746;2023-07-20T11:21:09;3.55;;;2.05;;
28547;SDS011;68292;49.600;8.746;2023-07-20T11:23:38;2.28;;;1.95;;
28547;SDS011;68292;49.600;8.746;2023-07-20T11:26:08;2.20;;;2.00;;
28547;SDS011;68292;49.600;8.746;2023-07-20T11:28:38;2.65;;;2.10;;
28547;SDS011;68292;49.600;8.746;2023-07-20T11:31:06;2.50;;;2.30;;
28547;SDS011;68292;49.600;8.746;2023-07-20T11:33:34;2.20;;;2.00;;
28547;SDS011;68292;49.600;8.746;2023-07-20T11:36:03;2.30;;;2.08;;
28547;SDS011;68292;49.600;8.746;2023-07-20T11:38:53;3.35;;;2.03;;
28547;SDS011;68292;49.600;8.746;2023-07-20T11:41:22;3.88;;;2.22;;
28547;SDS011;68292;49.600;8.746;2023-07-20T11:43:51;3.30;;;2.15;;
28547;SDS011;68292;49.600;8.746;2023-07-20T11:46:21;3.33;;;2.00;;
28547;SDS011;68292;49.600;8.746;2023-07-20T11:48:55;2.78;;;2.00;;
28547;SDS011;68292;49.600;8.746;2023-07-20T11:51:27;3.70;;;2.00;;
28547;SDS011;68292;49.600;8.746;2023-07-20T11:53:56;2.08;;;1.88;;
28547;SDS011;68292;49.600;8.746;2023-07-20T11:56:27;3.33;;;2.22;;
28547;SDS011;68292;49.600;8.746;2023-07-20T11:58:56;2.85;;;2.20;;
28547;SDS011;68292;49.600;8.746;2023-07-20T12:01:28;2.90;;;2.05;;
28547;SDS011;68292;49.600;8.746;2023-07-20T12:03:59;2.33;;;2.13;;
28547;SDS011;68292;49.600;8.746;2023-07-20T12:06:29;3.83;;;1.90;;
28547;SDS011;68292;49.600;8.746;2023-07-20T12:08:58;3.63;;;1.90;;
28547;SDS011;68292;49.600;8.746;2023-07-20T12:11:32;3.28;;;2.20;;
28547;SDS011;68292;49.600;8.746;2023-07-20T12:14:02;2.53;;;2.33;;
28547;SDS011;68292;49.600;8.746;2023-07-20T12:16:42;3.38;;;2.47;;
28547;SDS011;68292;49.600;8.746;2023-07-20T12:19:11;3.15;;;2.00;;
28547;SDS011;68292;49.600;8.746;2023-07-20T12:21:40;3.00;;;2.03;;
28547;SDS011;68292;49.600;8.746;2023-07-20T12:24:10;2.95;;;2.08;;
28547;SDS011;68292;49.600;8.746;2023-07-20T12:26:39;2.15;;;1.95;;
28547;SDS011;68292;49.600;8.746;2023-07-20T12:29:07;2.67;;;2.00;;
28547;SDS011;68292;49.600;8.746;2023-07-20T12:31:36;3.95;;;1.95;;
28547;SDS011;68292;49.600;8.746;2023-07-20T12:34:04;2.00;;;1.77;;
28547;SDS011;68292;49.600;8.746;2023-07-20T12:36:34;2.47;;;2.10;;
28547;SDS011;68292;49.600;8.746;2023-07-20T12:39:02;2.40;;;1.88;;
28547;SDS011;68292;49.600;8.746;2023-07-20T12:41:31;1.83;;;1.73;;
28547;SDS011;68292;49.600;8.746;2023-07-20T12:44:00;2.13;;;1.70;;
28547;SDS011;68292;49.600;8.746;2023-07-20T12:46:28;1.75;;;1.65;;
28547;SDS011;68292;49.600;8.746;2023-07-20T12:49:01;1.95;;;1.80;;
28547;SDS011;68292;49.600;8.746;2023-07-20T12:51:29;3.72;;;1.45;;
28547;SDS011;68292;49.600;8.746;2023-07-20T12:53:58;2.35;;;1.95;;
28547;SDS011;68292;49.600;8.746;2023-07-20T12:56:26;1.90;;;1.70;;
28547;SDS011;68292;49.600;8.746;2023-07-20T12:58:57;2.50;;;1.70;;
28547;SDS011;68292;49.600;8.746;2023-07-20T13:01:26;2.25;;;2.13;;
28547;SDS011;68292;49.600;8.746;2023-07-20T13:03:55;2.15;;;1.77;;
28547;SDS011;68292;49.600;8.746;2023-07-20T13:06:26;2.90;;;2.28;;
28547;SDS011;68292;49.600;8.746;2023-07-20T13:08:54;2.13;;;1.92;;
28547;SDS011;68292;49.600;8.746;2023-07-20T13:11:24;2.88;;;1.80;;
28547;SDS011;68292;49.600;8.746;2023-07-20T13:13:53;1.73;;;1.63;;
28547;SDS011;68292;49.600;8.746;2023-07-20T13:16:21;1.70;;;1.60;;
28547;SDS011;68292;49.600;8.746;2023-07-20T13:18:50;3.13;;;1.80;;
28547;SDS011;68292;49.600;8.746;2023-07-20T13:21:19;2.10;;;1.90;;
28547;SDS011;68292;49.600;8.746;2023-07-20T13:23:50;2.55;;;1.88;;
28547;SDS011;68292;49.600;8.746;2023-07-20T13:26:18;2.63;;;1.55;;
28547;SDS011;68292;49.600;8.746;2023-07-20T13:28:46;6.30;;;1.70;;
28547;SDS011;68292;49.600;8.746;2023-07-20T13:31:14;1.92;;;1.80;;
28547;SDS011;68292;49.600;8.746;2023-07-20T13:33:44;2.60;;;2.03;;
28547;SDS011;68292;49.600;8.746;2023-07-20T13:36:24;1.83;;;1.70;;
28547;SDS011;68292;49.600;8.746;2023-07-20T13:38:52;2.55;;;1.90;;
28547;SDS011;68292;49.600;8.746;2023-07-20T13:41:20;2.40;;;2.20;;
28547;SDS011;68292;49.600;8.746;2023-07-20T13:43:50;1.83;;;1.73;;
28547;SDS011;68292;49.600;8.746;2023-07-20T13:46:18;2.63;;;2.00;;
28547;SDS011;68292;49.600;8.746;2023-07-20T13:49:06;3.25;;;2.20;;
28547;SDS011;68292;49.600;8.746;2023-07-20T13:51:39;1.85;;;1.58;;
28547;SDS011;68292;49.600;8.746;2023-07-20T13:54:09;2.22;;;1.95;;
28547;SDS011;68292;49.600;8.746;2023-07-20T13:56:40;2.45;;;2.13;;
28547;SDS011;68292;49.600;8.746;2023-07-20T13:59:08;4.53;;;2.00;;
28547;SDS011;68292;49.600;8.746;2023-07-20T14:01:37;2.65;;;2.42;;
28547;SDS011;68292;49.600;8.746;2023-07-20T14:04:06;2.10;;;1.90;;
28547;SDS011;68292;49.600;8.746;2023-07-20T14:06:35;2.83;;;1.75;;
28547;SDS011;68292;49.600;8.746;2023-07-20T14:09:05;5.25;;;2.00;;
28547;SDS011;68292;49.600;8.746;2023-07-20T14:11:33;2.78;;;2.00;;
28547;SDS011;68292;49.600;8.746;2023-07-20T14:14:04;1.70;;;1.60;;
28547;SDS011;68292;49.600;8.746;2023-07-20T14:16:32;4.00;;;1.90;;
28547;SDS011;68292;49.600;8.746;2023-07-20T14:19:00;2.85;;;1.98;;
28547;SDS011;68292;49.600;8.746;2023-07-20T14:21:31;2.63;;;1.80;;
28547;SDS011;68292;49.600;8.746;2023-07-20T14:23:59;7.68;;;1.65;;
28547;SDS011;68292;49.600;8.746;2023-07-20T14:26:29;2.17;;;1.80;;
28547;SDS011;68292;49.600;8.746;2023-07-20T14:28:59;3.17;;;1.95;;
28547;SDS011;68292;49.600;8.746;2023-07-20T14:31:27;2.97;;;1.92;;
28547;SDS011;68292;49.600;8.746;2023-07-20T14:33:58;2.33;;;1.92;;
28547;SDS011;68292;49.600;8.746;2023-07-20T14:36:26;3.88;;;1.90;;
28547;SDS011;68292;49.600;8.746;2023-07-20T14:38:54;1.75;;;1.65;;
28547;SDS011;68292;49.600;8.746;2023-07-20T14:41:22;3.03;;;2.10;;
28547;SDS011;68292;49.600;8.746;2023-07-20T14:43:52;1.67;;;1.58;;
28547;SDS011;68292;49.600;8.746;2023-07-20T14:46:20;3.13;;;2.00;;
28547;SDS011;68292;49.600;8.746;2023-07-20T14:48:48;1.95;;;1.85;;
28547;SDS011;68292;49.600;8.746;2023-07-20T14:51:18;2.22;;;1.95;;
28547;SDS011;68292;49.600;8.746;2023-07-20T14:53:46;3.17;;;1.85;;
28547;SDS011;68292;49.600;8.746;2023-07-20T14:56:14;2.47;;;1.77;;
28547;SDS011;68292;49.600;8.746;2023-07-20T14:58:42;3.40;;;2.00;;
28547;SDS011;68292;49.600;8.746;2023-07-20T15:01:11;2.20;;;2.00;;
28547;SDS011;68292;49.600;8.746;2023-07-20T15:03:40;3.42;;;2.35;;
28547;SDS011;68292;49.600;8.746;2023-07-20T15:06:10;2.05;;;1.95;;
28547;SDS011;68292;49.600;8.746;2023-07-20T15:08:38;2.33;;;2.10;;